AirNav   ATP
 
 1423 users online  

XA63 AAF Heliport
Lucas, Texas, USA

GOING TO LUCAS?


FAA INFORMATION EFFECTIVE 20 JULY 2017

Location

FAA Identifier: XA63
Lat/Long: 33-05-20.4300N / 096-35-31.4700W
33-05.340500N / 096-35.524500W
33.0890083 / -96.5920750
(estimated)
Elevation: 615 ft. / 187 m (estimated)
Time zone: UTC -5 (UTC -6 during Standard Time)
Zip code: 75002

Heliport Operations

Heliport use: Private use. Permission required prior to landing
Activation date: 03/2005
Control tower: no
ARTCC: FORT WORTH CENTER
FSS: FORT WORTH FLIGHT SERVICE STATION
Attendance: UNATNDD
Wind indicator: yes
Segmented circle: no

Heliport Communications

WX ASOS at TKI (5 nm N): 119.925 (972-548-8525)
WX AWOS-3 at F46 (12 nm SE): 121.25 (972-772-6699)
WX AWOS-3 at ADS (14 nm SW): PHONE 972-386-4855
WX ASOS at DAL (20 nm SW): PHONE 214-353-1551

Nearby radio navigation aids

VOR radial/distance  VOR name  Freq  Var
CVEr047/19.7COWBOY VOR/DME116.2006E
TTTr054/26.1MAVERICK VOR/DME113.1006E
FUZr062/31.9RANGER VORTAC115.7006E
BYPr208/32.3BONHAM VORTAC114.6006E

 
NDB name  Hdg/Dist  Freq  Var  ID
MELISA178/10.442103EVLY ...- .-.. -.--
MESQUITE346/17.124803EPQF .--. --.- ..-.
CADDO MILLS274/17.531606EMII -- .. ..
JECCA347/25.438806EJUG .--- ..- --.
TRAVIS313/26.226006EAVZ .- ...- --..

Heliport Services

Runway Information

Helipad H1

Dimensions: 100 x 100 ft. / 30 x 30 m
Surface: turf
Traffic pattern: leftleft

Heliport Ownership and Management from official FAA records

Ownership: Privately-owned
Owner: LARRY W. ABSTON
4 ESTATES ROAD
LUCAS, TX 75002
Phone 972-442-1393
Manager: LARRY W. ABSTON
4 ESTATES ROAD
LUCAS, TX 75002
Phone 972-442-1393

Instrument Procedures

There are no published instrument procedures at XA63.

Some nearby airports with instrument procedures:

KTKI - McKinney National Airport (5 nm N)
F46 - Ralph M Hall/Rockwall Municipal Airport (12 nm SE)
KADS - Addison Airport (14 nm SW)
7F3 - Caddo Mills Municipal Airport (18 nm E)
KDAL - Dallas Love Field Airport (20 nm SW)
 
Loc | Ops | Rwys | IFR | FBO | Links
Com | Nav | Svcs | Stats | Notes

Lake Texoma Jet Center
AirBoss

 
Area around XA63 (AAF Heliport)
 
Road maps at: MapQuest Bing Google
 
Aerial photo
No photo
 
Sectional chart

 
Airport distance calculator
Flying to AAF Heliport? Find the distance to fly.

From to XA63

Sunrise and sunset
Times for 24-Jul-2017
 Local
(UTC-5)
 Zulu
(UTC)
Morning civil twilight06:0811:08
Sunrise06:3511:35
Sunset20:3101:31
Evening civil twilight20:5801:58

Current date and time
Zulu (UTC)  24-Jul-2017 21:29:12
Local (UTC-5)  24-Jul-2017 16:29:12
 
METAR
KTKI 
6nm N 
242053Z VRB03KT 10SM CLR 31/24 A2995 RMK AO2 SLP136 T03060239 58020
KF46 
12nm SE 
242115Z AUTO 16004KT 10SM CLR 31/23 A2995 RMK AO2 T03100225
KADS 
13nm SW 
242047Z 18005KT 10SM SCT034 32/23 A2996
KDAL 
19nm SW 
242053Z 11007KT 10SM FEW034 FEW110 SCT170 SCT250 32/23 A2994 RMK AO2 SLP130 CB DSNT E STNRY TCU DSNT NE T03170233 58020
TAF
KDAL 
19nm SW 
241729Z 2418/2518 16007KT P6SM FEW070 SCT120
NOTAMs
Click for the latest NOTAMs
NOTAMs are issued by the DoD/FAA and will open in a separate window not controlled by AirNav.

 

 
 

Would you like to see your business listed on this page?

 If your business provides an interesting product or service to pilots, flight crews, aircraft, or users of the AAF Heliport, you should consider listing it here.  To start the listing process, click on the button below
 
Add a business
 

Other Pages about AAF Heliport

Update a link
 
Copyright © AirNav, LLC. All rights reserved. Privacy Policy  Contact